sensor_id;sensor_type;location;lat;lon;timestamp;temperature;humidity
18268;DHT22;9260;49.998;19.880;2023-08-21T00:14:04;15.70;99.90
18268;DHT22;9260;49.998;19.880;2023-08-21T00:24:09;15.70;99.90
18268;DHT22;9260;49.998;19.880;2023-08-21T00:34:12;15.70;99.90
18268;DHT22;9260;49.998;19.880;2023-08-21T00:44:17;15.60;99.90
18268;DHT22;9260;49.998;19.880;2023-08-21T01:04:25;15.40;99.90
18268;DHT22;9260;49.998;19.880;2023-08-21T01:14:31;15.30;99.90
18268;DHT22;9260;49.998;19.880;2023-08-21T01:24:39;15.20;99.90
18268;DHT22;9260;49.998;19.880;2023-08-21T01:34:42;15.10;99.90
18268;DHT22;9260;49.998;19.880;2023-08-21T01:44:47;15.00;99.90
18268;DHT22;9260;49.998;19.880;2023-08-21T01:54:51;15.00;99.90
18268;DHT22;9260;49.998;19.880;2023-08-21T02:04:55;15.00;99.90
18268;DHT22;9260;49.998;19.880;2023-08-21T02:15:01;14.90;99.90
18268;DHT22;9260;49.998;19.880;2023-08-21T02:25:08;14.90;99.90
18268;DHT22;9260;49.998;19.880;2023-08-21T02:35:12;14.70;99.90
18268;DHT22;9260;49.998;19.880;2023-08-21T02:45:16;14.70;99.90
18268;DHT22;9260;49.998;19.880;2023-08-21T02:55:20;14.70;99.90
18268;DHT22;9260;49.998;19.880;2023-08-21T03:15:29;14.40;99.90
18268;DHT22;9260;49.998;19.880;2023-08-21T03:25:34;14.60;99.90
18268;DHT22;9260;49.998;19.880;2023-08-21T03:35:37;14.60;99.90
18268;DHT22;9260;49.998;19.880;2023-08-21T03:45:42;14.50;99.90
18268;DHT22;9260;49.998;19.880;2023-08-21T03:55:46;14.60;99.90
18268;DHT22;9260;49.998;19.880;2023-08-21T04:15:55;15.20;99.90
18268;DHT22;9260;49.998;19.880;2023-08-21T04:26:03;15.30;99.90
18268;DHT22;9260;49.998;19.880;2023-08-21T04:36:07;15.80;99.90
18268;DHT22;9260;49.998;19.880;2023-08-21T04:46:12;16.20;99.90
18268;DHT22;9260;49.998;19.880;2023-08-21T04:56:17;16.80;99.90
18268;DHT22;9260;49.998;19.880;2023-08-21T05:06:23;17.10;99.90
18268;DHT22;9260;49.998;19.880;2023-08-21T05:16:26;17.70;99.90
18268;DHT22;9260;49.998;19.880;2023-08-21T05:26:31;18.40;99.90
18268;DHT22;9260;49.998;19.880;2023-08-21T05:36:34;19.00;99.90
18268;DHT22;9260;49.998;19.880;2023-08-21T05:46:40;19.60;99.90
18268;DHT22;9260;49.998;19.880;2023-08-21T05:56:44;20.20;99.90
18268;DHT22;9260;49.998;19.880;2023-08-21T06:06:50;21.20;99.90
18268;DHT22;9260;49.998;19.880;2023-08-21T06:16:54;24.50;99.90
18268;DHT22;9260;49.998;19.880;2023-08-21T06:26:59;24.70;99.90
18268;DHT22;9260;49.998;19.880;2023-08-21T06:37:04;27.30;99.90
18268;DHT22;9260;49.998;19.880;2023-08-21T06:47:11;29.90;99.90
18268;DHT22;9260;49.998;19.880;2023-08-21T06:57:14;31.50;99.90
18268;DHT22;9260;49.998;19.880;2023-08-21T07:07:19;29.50;99.90
18268;DHT22;9260;49.998;19.880;2023-08-21T07:17:22;28.30;99.90
18268;DHT22;9260;49.998;19.880;2023-08-21T07:27:27;26.90;99.90
18268;DHT22;9260;49.998;19.880;2023-08-21T07:37:30;26.50;99.90
18268;DHT22;9260;49.998;19.880;2023-08-21T07:47:34;29.80;99.90
18268;DHT22;9260;49.998;19.880;2023-08-21T07:57:38;30.50;99.90
18268;DHT22;9260;49.998;19.880;2023-08-21T08:07:43;30.60;99.90
18268;DHT22;9260;49.998;19.880;2023-08-21T08:17:46;36.40;1.00
18268;DHT22;9260;49.998;19.880;2023-08-21T08:27:55;42.10;1.00
18268;DHT22;9260;49.998;19.880;2023-08-21T08:37:58;42.70;1.00
18268;DHT22;9260;49.998;19.880;2023-08-21T08:48:03;40.10;1.00
18268;DHT22;9260;49.998;19.880;2023-08-21T08:58:07;32.90;19.20
18268;DHT22;9260;49.998;19.880;2023-08-21T09:08:12;32.30;21.40
18268;DHT22;9260;49.998;19.880;2023-08-21T09:18:15;31.60;69.80
18268;DHT22;9260;49.998;19.880;2023-08-21T09:28:20;32.20;22.90
18268;DHT22;9260;49.998;19.880;2023-08-21T09:38:25;32.00;47.30
18268;DHT22;9260;49.998;19.880;2023-08-21T09:48:30;31.00;70.60
18268;DHT22;9260;49.998;19.880;2023-08-21T09:58:34;28.90;99.90
18268;DHT22;9260;49.998;19.880;2023-08-21T10:08:39;29.60;99.90
18268;DHT22;9260;49.998;19.880;2023-08-21T10:18:43;32.80;1.00
18268;DHT22;9260;49.998;19.880;2023-08-21T10:28:52;33.00;4.10
18268;DHT22;9260;49.998;19.880;2023-08-21T10:38:59;38.00;1.00
18268;DHT22;9260;49.998;19.880;2023-08-21T10:49:04;35.10;1.00
18268;DHT22;9260;49.998;19.880;2023-08-21T10:59:07;32.90;1.10
18268;DHT22;9260;49.998;19.880;2023-08-21T11:09:16;34.60;1.00
18268;DHT22;9260;49.998;19.880;2023-08-21T11:19:19;36.90;1.00
18268;DHT22;9260;49.998;19.880;2023-08-21T11:29:24;43.90;1.00
18268;DHT22;9260;49.998;19.880;2023-08-21T11:39:38;41.70;1.00
18268;DHT22;9260;49.998;19.880;2023-08-21T11:49:43;47.00;1.00
18268;DHT22;9260;49.998;19.880;2023-08-21T11:59:49;51.90;1.00
18268;DHT22;9260;49.998;19.880;2023-08-21T12:09:54;50.70;1.00
18268;DHT22;9260;49.998;19.880;2023-08-21T12:19:58;49.50;1.00
18268;DHT22;9260;49.998;19.880;2023-08-21T12:30:05;46.00;1.00
18268;DHT22;9260;49.998;19.880;2023-08-21T12:40:09;38.70;1.00
18268;DHT22;9260;49.998;19.880;2023-08-21T12:50:14;34.40;1.00
18268;DHT22;9260;49.998;19.880;2023-08-21T13:00:17;31.40;63.30
18268;DHT22;9260;49.998;19.880;2023-08-21T13:10:22;30.80;52.20
18268;DHT22;9260;49.998;19.880;2023-08-21T13:20:25;30.20;99.90
18268;DHT22;9260;49.998;19.880;2023-08-21T13:30:30;30.90;90.50
18268;DHT22;9260;49.998;19.880;2023-08-21T13:40:34;33.30;36.70
18268;DHT22;9260;49.998;19.880;2023-08-21T13:50:38;33.80;2.20
18268;DHT22;9260;49.998;19.880;2023-08-21T14:00:41;32.60;29.50
18268;DHT22;9260;49.998;19.880;2023-08-21T14:10:47;32.40;28.00
18268;DHT22;9260;49.998;19.880;2023-08-21T14:20:50;31.90;72.40
18268;DHT22;9260;49.998;19.880;2023-08-21T14:30:55;31.10;45.60
18268;DHT22;9260;49.998;19.880;2023-08-21T14:40:58;30.90;99.90
18268;DHT22;9260;49.998;19.880;2023-08-21T14:51:03;30.50;93.00
18268;DHT22;9260;49.998;19.880;2023-08-21T15:01:06;30.20;99.90
18268;DHT22;9260;49.998;19.880;2023-08-21T15:11:13;29.80;99.90
18268;DHT22;9260;49.998;19.880;2023-08-21T15:21:16;29.20;99.90
18268;DHT22;9260;49.998;19.880;2023-08-21T15:31:21;29.00;99.90
18268;DHT22;9260;49.998;19.880;2023-08-21T15:41:24;29.10;99.90
18268;DHT22;9260;49.998;19.880;2023-08-21T15:51:29;28.30;99.90
18268;DHT22;9260;49.998;19.880;2023-08-21T16:01:32;28.10;99.90
18268;DHT22;9260;49.998;19.880;2023-08-21T16:11:37;27.70;99.90
18268;DHT22;9260;49.998;19.880;2023-08-21T16:21:40;27.70;99.90
18268;DHT22;9260;49.998;19.880;2023-08-21T16:31:44;27.50;99.90
18268;DHT22;9260;49.998;19.880;2023-08-21T16:41:49;27.60;99.90
18268;DHT22;9260;49.998;19.880;2023-08-21T16:51:54;27.20;99.90
18268;DHT22;9260;49.998;19.880;2023-08-21T17:01:57;27.00;99.90
18268;DHT22;9260;49.998;19.880;2023-08-21T17:12:02;26.30;99.90
18268;DHT22;9260;49.998;19.880;2023-08-21T17:22:05;25.60;99.90
18268;DHT22;9260;49.998;19.880;2023-08-21T17:32:10;24.40;99.90
18268;DHT22;9260;49.998;19.880;2023-08-21T17:42:14;23.40;99.90
18268;DHT22;9260;49.998;19.880;2023-08-21T17:52:19;22.70;99.90
18268;DHT22;9260;49.998;19.880;2023-08-21T18:02:22;22.40;99.90
18268;DHT22;9260;49.998;19.880;2023-08-21T18:12:30;22.20;99.90
18268;DHT22;9260;49.998;19.880;2023-08-21T18:22:33;22.20;99.90
18268;DHT22;9260;49.998;19.880;2023-08-21T18:32:37;22.00;99.90
18268;DHT22;9260;49.998;19.880;2023-08-21T18:42:41;22.10;99.90
18268;DHT22;9260;49.998;19.880;2023-08-21T18:52:47;21.90;99.90
18268;DHT22;9260;49.998;19.880;2023-08-21T19:02:50;22.20;99.90
18268;DHT22;9260;49.998;19.880;2023-08-21T19:12:55;22.10;99.90
18268;DHT22;9260;49.998;19.880;2023-08-21T19:22:58;22.30;99.90
18268;DHT22;9260;49.998;19.880;2023-08-21T19:33:04;22.10;99.90
18268;DHT22;9260;49.998;19.880;2023-08-21T19:43:07;22.00;98.90
18268;DHT22;9260;49.998;19.880;2023-08-21T19:53:12;21.70;99.90
18268;DHT22;9260;49.998;19.880;2023-08-21T20:03:15;21.30;99.90
18268;DHT22;9260;49.998;19.880;2023-08-21T20:13:24;21.10;99.90
18268;DHT22;9260;49.998;19.880;2023-08-21T20:23:28;20.80;99.90
18268;DHT22;9260;49.998;19.880;2023-08-21T20:33:33;20.50;99.90
18268;DHT22;9260;49.998;19.880;2023-08-21T20:43:36;20.20;99.90
18268;DHT22;9260;49.998;19.880;2023-08-21T20:53:41;19.80;99.90
18268;DHT22;9260;49.998;19.880;2023-08-21T21:03:44;19.60;99.90
18268;DHT22;9260;49.998;19.880;2023-08-21T21:13:49;19.50;99.90
18268;DHT22;9260;49.998;19.880;2023-08-21T21:23:52;19.40;99.90
18268;DHT22;9260;49.998;19.880;2023-08-21T21:44:00;19.10;99.90
18268;DHT22;9260;49.998;19.880;2023-08-21T21:54:05;19.00;99.90
18268;DHT22;9260;49.998;19.880;2023-08-21T22:04:08;18.70;99.90
18268;DHT22;9260;49.998;19.880;2023-08-21T22:14:13;18.50;99.90
18268;DHT22;9260;49.998;19.880;2023-08-21T22:24:17;18.40;96.40
18268;DHT22;9260;49.998;19.880;2023-08-21T22:34:21;18.40;99.90
18268;DHT22;9260;49.998;19.880;2023-08-21T22:44:25;18.20;99.90
18268;DHT22;9260;49.998;19.880;2023-08-21T22:54:29;17.90;99.90
18268;DHT22;9260;49.998;19.880;2023-08-21T23:34:46;17.20;44.40
18268;DHT22;9260;49.998;19.880;2023-08-21T23:44:49;17.10;73.50
18268;DHT22;9260;49.998;19.880;2023-08-21T23:54:54;17.00;99.90
